sensor_id;sensor_type;location;lat;lon;timestamp;P1;durP1;ratioP1;P2;durP2;ratioP2
7359;SDS011;3720;48.274;7.796;2023-04-09T00:02:08;11.77;;;8.77;;
7359;SDS011;3720;48.274;7.796;2023-04-09T00:04:40;13.10;;;9.80;;
7359;SDS011;3720;48.274;7.796;2023-04-09T00:07:12;12.13;;;9.50;;
7359;SDS011;3720;48.274;7.796;2023-04-09T00:09:45;13.23;;;9.52;;
7359;SDS011;3720;48.274;7.796;2023-04-09T00:12:17;12.52;;;9.32;;
7359;SDS011;3720;48.274;7.796;2023-04-09T00:14:49;11.75;;;9.25;;
7359;SDS011;3720;48.274;7.796;2023-04-09T00:17:22;11.93;;;9.45;;
7359;SDS011;3720;48.274;7.796;2023-04-09T00:19:53;15.32;;;9.88;;
7359;SDS011;3720;48.274;7.796;2023-04-09T00:22:25;12.18;;;9.48;;
7359;SDS011;3720;48.274;7.796;2023-04-09T00:24:59;11.88;;;9.13;;
7359;SDS011;3720;48.274;7.796;2023-04-09T00:27:30;13.02;;;9.23;;
7359;SDS011;3720;48.274;7.796;2023-04-09T00:30:03;11.48;;;9.30;;
7359;SDS011;3720;48.274;7.796;2023-04-09T00:32:36;11.05;;;8.98;;
7359;SDS011;3720;48.274;7.796;2023-04-09T00:35:08;11.40;;;9.25;;
7359;SDS011;3720;48.274;7.796;2023-04-09T00:37:40;12.75;;;9.45;;
7359;SDS011;3720;48.274;7.796;2023-04-09T00:40:13;12.98;;;9.90;;
7359;SDS011;3720;48.274;7.796;2023-04-09T00:42:45;12.68;;;9.23;;
7359;SDS011;3720;48.274;7.796;2023-04-09T00:45:18;12.98;;;9.57;;
7359;SDS011;3720;48.274;7.796;2023-04-09T00:47:50;12.32;;;9.73;;
7359;SDS011;3720;48.274;7.796;2023-04-09T00:50:22;13.32;;;9.98;;
7359;SDS011;3720;48.274;7.796;2023-04-09T00:52:54;15.57;;;10.75;;
7359;SDS011;3720;48.274;7.796;2023-04-09T00:55:28;13.60;;;10.38;;
7359;SDS011;3720;48.274;7.796;2023-04-09T00:58:01;14.57;;;10.57;;
7359;SDS011;3720;48.274;7.796;2023-04-09T01:00:33;13.60;;;10.02;;
7359;SDS011;3720;48.274;7.796;2023-04-09T01:03:05;13.93;;;10.38;;
7359;SDS011;3720;48.274;7.796;2023-04-09T01:05:40;13.27;;;9.68;;
7359;SDS011;3720;48.274;7.796;2023-04-09T01:08:23;11.60;;;9.48;;
7359;SDS011;3720;48.274;7.796;2023-04-09T01:11:05;12.90;;;9.55;;
7359;SDS011;3720;48.274;7.796;2023-04-09T01:13:45;13.82;;;10.57;;
7359;SDS011;3720;48.274;7.796;2023-04-09T01:16:21;12.98;;;9.63;;
7359;SDS011;3720;48.274;7.796;2023-04-09T01:18:55;12.18;;;9.07;;
7359;SDS011;3720;48.274;7.796;2023-04-09T01:21:31;13.90;;;9.85;;
7359;SDS011;3720;48.274;7.796;2023-04-09T01:24:09;12.95;;;9.70;;
7359;SDS011;3720;48.274;7.796;2023-04-09T01:26:57;14.23;;;9.68;;
7359;SDS011;3720;48.274;7.796;2023-04-09T01:29:37;13.80;;;9.75;;
7359;SDS011;3720;48.274;7.796;2023-04-09T01:32:12;13.35;;;10.05;;
7359;SDS011;3720;48.274;7.796;2023-04-09T01:34:47;13.40;;;9.98;;
7359;SDS011;3720;48.274;7.796;2023-04-09T01:37:19;13.98;;;10.77;;
7359;SDS011;3720;48.274;7.796;2023-04-09T01:39:54;17.30;;;10.77;;
7359;SDS011;3720;48.274;7.796;2023-04-09T01:42:26;12.85;;;9.55;;
7359;SDS011;3720;48.274;7.796;2023-04-09T01:45:00;14.25;;;10.75;;
7359;SDS011;3720;48.274;7.796;2023-04-09T01:47:34;14.98;;;10.82;;
7359;SDS011;3720;48.274;7.796;2023-04-09T01:50:06;16.00;;;10.80;;
7359;SDS011;3720;48.274;7.796;2023-04-09T01:52:39;14.90;;;10.55;;
7359;SDS011;3720;48.274;7.796;2023-04-09T01:55:12;16.15;;;10.98;;
7359;SDS011;3720;48.274;7.796;2023-04-09T01:57:44;16.48;;;11.20;;
7359;SDS011;3720;48.274;7.796;2023-04-09T02:00:17;15.10;;;11.52;;
7359;SDS011;3720;48.274;7.796;2023-04-09T02:02:52;17.42;;;12.55;;
7359;SDS011;3720;48.274;7.796;2023-04-09T02:05:30;16.52;;;12.95;;
7359;SDS011;3720;48.274;7.796;2023-04-09T02:08:08;16.02;;;11.57;;
7359;SDS011;3720;48.274;7.796;2023-04-09T02:10:43;15.27;;;11.98;;
7359;SDS011;3720;48.274;7.796;2023-04-09T02:13:22;13.43;;;10.32;;
7359;SDS011;3720;48.274;7.796;2023-04-09T02:15:57;15.45;;;11.50;;
7359;SDS011;3720;48.274;7.796;2023-04-09T02:18:31;15.68;;;11.07;;
7359;SDS011;3720;48.274;7.796;2023-04-09T02:21:03;14.30;;;10.75;;
7359;SDS011;3720;48.274;7.796;2023-04-09T02:23:35;16.58;;;11.27;;
7359;SDS011;3720;48.274;7.796;2023-04-09T02:26:07;15.55;;;11.07;;
7359;SDS011;3720;48.274;7.796;2023-04-09T02:28:39;14.52;;;11.18;;
7359;SDS011;3720;48.274;7.796;2023-04-09T02:31:12;15.00;;;10.77;;
7359;SDS011;3720;48.274;7.796;2023-04-09T02:33:44;14.35;;;10.40;;
7359;SDS011;3720;48.274;7.796;2023-04-09T02:36:16;15.13;;;10.98;;
7359;SDS011;3720;48.274;7.796;2023-04-09T02:38:48;14.63;;;10.73;;
7359;SDS011;3720;48.274;7.796;2023-04-09T02:41:20;15.23;;;11.13;;
7359;SDS011;3720;48.274;7.796;2023-04-09T02:43:53;14.60;;;10.63;;
7359;SDS011;3720;48.274;7.796;2023-04-09T02:46:27;14.23;;;10.07;;
7359;SDS011;3720;48.274;7.796;2023-04-09T02:48:59;13.70;;;10.27;;
7359;SDS011;3720;48.274;7.796;2023-04-09T02:51:33;16.08;;;10.93;;
7359;SDS011;3720;48.274;7.796;2023-04-09T02:54:05;15.90;;;11.30;;
7359;SDS011;3720;48.274;7.796;2023-04-09T02:56:37;16.83;;;11.23;;
7359;SDS011;3720;48.274;7.796;2023-04-09T02:59:09;14.85;;;10.52;;
7359;SDS011;3720;48.274;7.796;2023-04-09T03:01:42;14.88;;;11.45;;
7359;SDS011;3720;48.274;7.796;2023-04-09T03:04:14;15.63;;;11.40;;
7359;SDS011;3720;48.274;7.796;2023-04-09T03:06:46;17.40;;;11.15;;
7359;SDS011;3720;48.274;7.796;2023-04-09T03:09:18;15.02;;;10.82;;
7359;SDS011;3720;48.274;7.796;2023-04-09T03:11:50;15.73;;;11.25;;
7359;SDS011;3720;48.274;7.796;2023-04-09T03:14:22;15.40;;;10.98;;
7359;SDS011;3720;48.274;7.796;2023-04-09T03:16:55;14.45;;;10.23;;
7359;SDS011;3720;48.274;7.796;2023-04-09T03:19:27;13.65;;;10.50;;
7359;SDS011;3720;48.274;7.796;2023-04-09T03:22:00;15.98;;;11.50;;
7359;SDS011;3720;48.274;7.796;2023-04-09T03:24:32;15.48;;;10.88;;
7359;SDS011;3720;48.274;7.796;2023-04-09T03:27:04;16.52;;;11.55;;
7359;SDS011;3720;48.274;7.796;2023-04-09T03:29:36;14.02;;;10.73;;
7359;SDS011;3720;48.274;7.796;2023-04-09T03:32:09;15.73;;;11.20;;
7359;SDS011;3720;48.274;7.796;2023-04-09T03:34:41;15.50;;;11.10;;
7359;SDS011;3720;48.274;7.796;2023-04-09T03:37:13;15.25;;;10.93;;
7359;SDS011;3720;48.274;7.796;2023-04-09T03:39:45;15.77;;;11.10;;
7359;SDS011;3720;48.274;7.796;2023-04-09T03:42:17;14.05;;;10.52;;
7359;SDS011;3720;48.274;7.796;2023-04-09T03:44:52;15.00;;;11.02;;
7359;SDS011;3720;48.274;7.796;2023-04-09T03:47:25;17.33;;;12.90;;
7359;SDS011;3720;48.274;7.796;2023-04-09T03:49:57;17.35;;;13.00;;
7359;SDS011;3720;48.274;7.796;2023-04-09T03:52:29;19.60;;;14.27;;
7359;SDS011;3720;48.274;7.796;2023-04-09T03:55:01;20.58;;;14.27;;
7359;SDS011;3720;48.274;7.796;2023-04-09T03:57:33;19.80;;;14.23;;
7359;SDS011;3720;48.274;7.796;2023-04-09T04:00:06;18.67;;;14.05;;
7359;SDS011;3720;48.274;7.796;2023-04-09T04:02:40;20.52;;;14.45;;
7359;SDS011;3720;48.274;7.796;2023-04-09T04:05:12;18.98;;;14.02;;
7359;SDS011;3720;48.274;7.796;2023-04-09T04:07:44;21.38;;;14.18;;
7359;SDS011;3720;48.274;7.796;2023-04-09T04:10:16;19.67;;;14.45;;
7359;SDS011;3720;48.274;7.796;2023-04-09T04:12:48;17.95;;;13.18;;
7359;SDS011;3720;48.274;7.796;2023-04-09T04:15:20;16.83;;;12.50;;
7359;SDS011;3720;48.274;7.796;2023-04-09T04:17:53;18.58;;;13.40;;
7359;SDS011;3720;48.274;7.796;2023-04-09T04:20:25;17.27;;;12.55;;
7359;SDS011;3720;48.274;7.796;2023-04-09T04:22:57;19.00;;;13.38;;
7359;SDS011;3720;48.274;7.796;2023-04-09T04:25:29;20.10;;;13.70;;
7359;SDS011;3720;48.274;7.796;2023-04-09T04:28:01;20.50;;;14.07;;
7359;SDS011;3720;48.274;7.796;2023-04-09T04:30:33;20.15;;;13.98;;
7359;SDS011;3720;48.274;7.796;2023-04-09T04:33:07;17.45;;;12.48;;
7359;SDS011;3720;48.274;7.796;2023-04-09T04:35:39;17.77;;;12.65;;
7359;SDS011;3720;48.274;7.796;2023-04-09T04:38:11;17.95;;;12.27;;
7359;SDS011;3720;48.274;7.796;2023-04-09T04:40:42;17.27;;;12.93;;
7359;SDS011;3720;48.274;7.796;2023-04-09T04:43:15;17.27;;;12.77;;
7359;SDS011;3720;48.274;7.796;2023-04-09T04:45:46;20.00;;;13.50;;
7359;SDS011;3720;48.274;7.796;2023-04-09T04:48:20;19.27;;;13.80;;
7359;SDS011;3720;48.274;7.796;2023-04-09T04:50:56;21.98;;;14.18;;
7359;SDS011;3720;48.274;7.796;2023-04-09T04:53:28;20.08;;;14.38;;
7359;SDS011;3720;48.274;7.796;2023-04-09T04:56:00;18.20;;;13.23;;
7359;SDS011;3720;48.274;7.796;2023-04-09T04:58:32;20.40;;;13.90;;
7359;SDS011;3720;48.274;7.796;2023-04-09T05:01:03;20.08;;;13.68;;
7359;SDS011;3720;48.274;7.796;2023-04-09T05:03:37;22.67;;;14.88;;
7359;SDS011;3720;48.274;7.796;2023-04-09T05:06:09;22.23;;;15.35;;
7359;SDS011;3720;48.274;7.796;2023-04-09T05:08:40;22.55;;;15.60;;
7359;SDS011;3720;48.274;7.796;2023-04-09T05:11:12;23.10;;;15.70;;
7359;SDS011;3720;48.274;7.796;2023-04-09T05:13:46;22.17;;;15.60;;
7359;SDS011;3720;48.274;7.796;2023-04-09T05:16:18;23.33;;;16.40;;
7359;SDS011;3720;48.274;7.796;2023-04-09T05:18:52;24.30;;;16.80;;
7359;SDS011;3720;48.274;7.796;2023-04-09T05:21:24;22.65;;;15.95;;
7359;SDS011;3720;48.274;7.796;2023-04-09T05:23:56;28.23;;;16.65;;
7359;SDS011;3720;48.274;7.796;2023-04-09T05:26:28;23.25;;;16.02;;
7359;SDS011;3720;48.274;7.796;2023-04-09T05:29:00;21.48;;;15.32;;
7359;SDS011;3720;48.274;7.796;2023-04-09T05:31:33;22.73;;;15.25;;
7359;SDS011;3720;48.274;7.796;2023-04-09T05:34:07;21.55;;;15.75;;
7359;SDS011;3720;48.274;7.796;2023-04-09T05:36:39;21.90;;;15.55;;
7359;SDS011;3720;48.274;7.796;2023-04-09T05:39:11;23.25;;;16.20;;
7359;SDS011;3720;48.274;7.796;2023-04-09T05:41:43;21.23;;;15.45;;
7359;SDS011;3720;48.274;7.796;2023-04-09T05:44:15;24.02;;;16.15;;
7359;SDS011;3720;48.274;7.796;2023-04-09T05:46:47;22.85;;;15.55;;
7359;SDS011;3720;48.274;7.796;2023-04-09T05:49:20;22.13;;;15.65;;
7359;SDS011;3720;48.274;7.796;2023-04-09T05:51:52;25.00;;;16.88;;
7359;SDS011;3720;48.274;7.796;2023-04-09T05:54:24;27.95;;;18.67;;
7359;SDS011;3720;48.274;7.796;2023-04-09T05:56:56;27.70;;;17.25;;
7359;SDS011;3720;48.274;7.796;2023-04-09T05:59:28;25.55;;;17.38;;
7359;SDS011;3720;48.274;7.796;2023-04-09T06:02:00;25.60;;;18.00;;
7359;SDS011;3720;48.274;7.796;2023-04-09T06:04:34;25.45;;;17.55;;
7359;SDS011;3720;48.274;7.796;2023-04-09T06:07:06;29.13;;;19.13;;
7359;SDS011;3720;48.274;7.796;2023-04-09T06:09:38;28.08;;;19.08;;
7359;SDS011;3720;48.274;7.796;2023-04-09T06:12:09;28.60;;;18.55;;
7359;SDS011;3720;48.274;7.796;2023-04-09T06:14:41;28.17;;;19.27;;
7359;SDS011;3720;48.274;7.796;2023-04-09T06:17:13;26.95;;;19.17;;
7359;SDS011;3720;48.274;7.796;2023-04-09T06:19:46;26.02;;;18.20;;
7359;SDS011;3720;48.274;7.796;2023-04-09T06:22:18;27.63;;;17.88;;
7359;SDS011;3720;48.274;7.796;2023-04-09T06:24:50;27.15;;;19.27;;
7359;SDS011;3720;48.274;7.796;2023-04-09T06:27:22;26.35;;;18.48;;
7359;SDS011;3720;48.274;7.796;2023-04-09T06:29:55;25.77;;;17.58;;
7359;SDS011;3720;48.274;7.796;2023-04-09T06:32:27;26.80;;;18.13;;
7359;SDS011;3720;48.274;7.796;2023-04-09T06:35:00;25.20;;;17.83;;
7359;SDS011;3720;48.274;7.796;2023-04-09T06:37:32;28.50;;;19.50;;
7359;SDS011;3720;48.274;7.796;2023-04-09T06:40:05;27.48;;;19.42;;
7359;SDS011;3720;48.274;7.796;2023-04-09T06:42:38;27.02;;;19.23;;
7359;SDS011;3720;48.274;7.796;2023-04-09T06:45:10;27.63;;;19.15;;
7359;SDS011;3720;48.274;7.796;2023-04-09T06:47:42;25.33;;;18.48;;
7359;SDS011;3720;48.274;7.796;2023-04-09T06:50:15;23.95;;;17.58;;
7359;SDS011;3720;48.274;7.796;2023-04-09T06:52:47;25.88;;;18.05;;
7359;SDS011;3720;48.274;7.796;2023-04-09T06:55:19;26.65;;;18.00;;
7359;SDS011;3720;48.274;7.796;2023-04-09T06:57:51;26.10;;;18.55;;
7359;SDS011;3720;48.274;7.796;2023-04-09T07:00:23;26.52;;;17.60;;
7359;SDS011;3720;48.274;7.796;2023-04-09T07:02:55;25.15;;;18.50;;
7359;SDS011;3720;48.274;7.796;2023-04-09T07:05:29;24.02;;;17.60;;
7359;SDS011;3720;48.274;7.796;2023-04-09T07:08:01;24.67;;;17.65;;
7359;SDS011;3720;48.274;7.796;2023-04-09T07:10:33;24.83;;;17.17;;
7359;SDS011;3720;48.274;7.796;2023-04-09T07:13:05;23.23;;;16.70;;
7359;SDS011;3720;48.274;7.796;2023-04-09T07:15:37;21.98;;;15.85;;
7359;SDS011;3720;48.274;7.796;2023-04-09T07:18:09;21.10;;;15.63;;
7359;SDS011;3720;48.274;7.796;2023-04-09T07:20:42;20.77;;;15.70;;
7359;SDS011;3720;48.274;7.796;2023-04-09T07:23:14;20.40;;;15.45;;
7359;SDS011;3720;48.274;7.796;2023-04-09T07:25:46;20.50;;;14.95;;
7359;SDS011;3720;48.274;7.796;2023-04-09T07:28:18;20.50;;;14.40;;
7359;SDS011;3720;48.274;7.796;2023-04-09T07:30:51;19.23;;;14.88;;
7359;SDS011;3720;48.274;7.796;2023-04-09T07:33:22;19.92;;;14.68;;
7359;SDS011;3720;48.274;7.796;2023-04-09T07:35:56;19.00;;;14.20;;
7359;SDS011;3720;48.274;7.796;2023-04-09T07:38:28;18.88;;;14.10;;
7359;SDS011;3720;48.274;7.796;2023-04-09T07:41:00;18.77;;;13.82;;
7359;SDS011;3720;48.274;7.796;2023-04-09T07:43:32;19.25;;;13.68;;
7359;SDS011;3720;48.274;7.796;2023-04-09T07:46:04;19.83;;;13.43;;
7359;SDS011;3720;48.274;7.796;2023-04-09T07:48:36;19.55;;;14.27;;
7359;SDS011;3720;48.274;7.796;2023-04-09T07:51:09;18.77;;;13.90;;
7359;SDS011;3720;48.274;7.796;2023-04-09T07:53:41;17.85;;;13.60;;
7359;SDS011;3720;48.274;7.796;2023-04-09T07:56:13;17.88;;;13.07;;
7359;SDS011;3720;48.274;7.796;2023-04-09T07:58:45;16.02;;;10.40;;
7359;SDS011;3720;48.274;7.796;2023-04-09T08:01:18;11.30;;;8.18;;
7359;SDS011;3720;48.274;7.796;2023-04-09T08:03:53;10.60;;;8.32;;
7359;SDS011;3720;48.274;7.796;2023-04-09T08:06:26;11.13;;;8.13;;
7359;SDS011;3720;48.274;7.796;2023-04-09T08:08:58;10.77;;;8.07;;
7359;SDS011;3720;48.274;7.796;2023-04-09T08:11:30;10.15;;;7.78;;
7359;SDS011;3720;48.274;7.796;2023-04-09T08:14:02;9.77;;;7.90;;
7359;SDS011;3720;48.274;7.796;2023-04-09T08:16:35;9.57;;;7.30;;
7359;SDS011;3720;48.274;7.796;2023-04-09T08:19:07;10.05;;;7.57;;
7359;SDS011;3720;48.274;7.796;2023-04-09T08:21:40;11.30;;;7.53;;
7359;SDS011;3720;48.274;7.796;2023-04-09T08:24:13;11.20;;;7.75;;
7359;SDS011;3720;48.274;7.796;2023-04-09T08:26:46;11.68;;;8.50;;
7359;SDS011;3720;48.274;7.796;2023-04-09T08:29:18;11.98;;;9.13;;
7359;SDS011;3720;48.274;7.796;2023-04-09T08:31:50;11.75;;;8.70;;
7359;SDS011;3720;48.274;7.796;2023-04-09T08:34:22;10.75;;;8.30;;
7359;SDS011;3720;48.274;7.796;2023-04-09T08:36:55;10.65;;;8.40;;
7359;SDS011;3720;48.274;7.796;2023-04-09T08:39:27;11.23;;;8.70;;
7359;SDS011;3720;48.274;7.796;2023-04-09T08:41:59;11.18;;;8.02;;
7359;SDS011;3720;48.274;7.796;2023-04-09T08:44:31;10.63;;;7.75;;
7359;SDS011;3720;48.274;7.796;2023-04-09T08:47:06;10.20;;;7.95;;
7359;SDS011;3720;48.274;7.796;2023-04-09T08:49:39;8.80;;;7.18;;
7359;SDS011;3720;48.274;7.796;2023-04-09T08:52:12;8.82;;;7.32;;
7359;SDS011;3720;48.274;7.796;2023-04-09T08:54:48;8.02;;;6.47;;
7359;SDS011;3720;48.274;7.796;2023-04-09T08:57:21;8.77;;;6.55;;
7359;SDS011;3720;48.274;7.796;2023-04-09T08:59:53;10.05;;;7.22;;
7359;SDS011;3720;48.274;7.796;2023-04-09T09:02:24;7.82;;;6.30;;
7359;SDS011;3720;48.274;7.796;2023-04-09T09:04:56;8.65;;;6.70;;
7359;SDS011;3720;48.274;7.796;2023-04-09T09:07:31;7.57;;;6.00;;
7359;SDS011;3720;48.274;7.796;2023-04-09T09:10:03;7.80;;;6.35;;
7359;SDS011;3720;48.274;7.796;2023-04-09T09:12:36;8.18;;;6.50;;
7359;SDS011;3720;48.274;7.796;2023-04-09T09:15:23;8.13;;;6.32;;
7359;SDS011;3720;48.274;7.796;2023-04-09T09:17:57;7.40;;;6.07;;
7359;SDS011;3720;48.274;7.796;2023-04-09T09:20:30;7.18;;;5.63;;
7359;SDS011;3720;48.274;7.796;2023-04-09T09:23:04;6.70;;;5.45;;
7359;SDS011;3720;48.274;7.796;2023-04-09T09:25:39;7.00;;;5.47;;
7359;SDS011;3720;48.274;7.796;2023-04-09T09:28:12;7.80;;;6.50;;
7359;SDS011;3720;48.274;7.796;2023-04-09T09:30:44;7.60;;;5.95;;
7359;SDS011;3720;48.274;7.796;2023-04-09T09:33:16;5.32;;;4.55;;
7359;SDS011;3720;48.274;7.796;2023-04-09T09:35:49;7.35;;;5.40;;
7359;SDS011;3720;48.274;7.796;2023-04-09T09:38:24;5.90;;;5.03;;
7359;SDS011;3720;48.274;7.796;2023-04-09T09:40:56;5.93;;;5.22;;
7359;SDS011;3720;48.274;7.796;2023-04-09T09:43:31;5.72;;;4.90;;
7359;SDS011;3720;48.274;7.796;2023-04-09T09:46:11;6.10;;;4.80;;
7359;SDS011;3720;48.274;7.796;2023-04-09T09:48:43;4.70;;;3.92;;
7359;SDS011;3720;48.274;7.796;2023-04-09T09:51:16;4.93;;;4.03;;
7359;SDS011;3720;48.274;7.796;2023-04-09T09:53:51;4.53;;;3.72;;
7359;SDS011;3720;48.274;7.796;2023-04-09T09:56:29;4.07;;;3.47;;
7359;SDS011;3720;48.274;7.796;2023-04-09T09:59:05;5.00;;;4.00;;
7359;SDS011;3720;48.274;7.796;2023-04-09T10:01:40;4.53;;;3.42;;
7359;SDS011;3720;48.274;7.796;2023-04-09T10:04:14;3.55;;;3.05;;
7359;SDS011;3720;48.274;7.796;2023-04-09T10:06:48;3.38;;;3.08;;
7359;SDS011;3720;48.274;7.796;2023-04-09T10:09:23;4.00;;;3.33;;
7359;SDS011;3720;48.274;7.796;2023-04-09T10:11:58;4.13;;;3.58;;
7359;SDS011;3720;48.274;7.796;2023-04-09T10:14:31;7.65;;;3.13;;
7359;SDS011;3720;48.274;7.796;2023-04-09T10:17:04;4.57;;;3.40;;
7359;SDS011;3720;48.274;7.796;2023-04-09T10:19:38;4.53;;;4.07;;
7359;SDS011;3720;48.274;7.796;2023-04-09T10:24:49;4.32;;;3.65;;
7359;SDS011;3720;48.274;7.796;2023-04-09T10:27:22;5.53;;;4.20;;
7359;SDS011;3720;48.274;7.796;2023-04-09T10:29:54;4.85;;;4.05;;
7359;SDS011;3720;48.274;7.796;2023-04-09T10:32:26;5.18;;;4.30;;
7359;SDS011;3720;48.274;7.796;2023-04-09T10:35:05;4.90;;;4.07;;
7359;SDS011;3720;48.274;7.796;2023-04-09T10:37:39;5.90;;;4.88;;
7359;SDS011;3720;48.274;7.796;2023-04-09T10:40:20;4.75;;;4.10;;
7359;SDS011;3720;48.274;7.796;2023-04-09T10:42:52;3.80;;;3.40;;
7359;SDS011;3720;48.274;7.796;2023-04-09T10:45:26;5.00;;;4.18;;
7359;SDS011;3720;48.274;7.796;2023-04-09T10:48:10;4.88;;;3.47;;
7359;SDS011;3720;48.274;7.796;2023-04-09T10:50:43;4.65;;;3.92;;
7359;SDS011;3720;48.274;7.796;2023-04-09T10:53:22;4.60;;;3.92;;
7359;SDS011;3720;48.274;7.796;2023-04-09T10:55:55;4.60;;;3.97;;
7359;SDS011;3720;48.274;7.796;2023-04-09T10:58:29;4.15;;;3.20;;
7359;SDS011;3720;48.274;7.796;2023-04-09T11:01:02;3.92;;;3.53;;
7359;SDS011;3720;48.274;7.796;2023-04-09T11:03:34;3.38;;;3.08;;
7359;SDS011;3720;48.274;7.796;2023-04-09T11:06:15;3.47;;;3.13;;
7359;SDS011;3720;48.274;7.796;2023-04-09T11:08:50;3.95;;;3.55;;
7359;SDS011;3720;48.274;7.796;2023-04-09T11:11:26;3.97;;;3.33;;
7359;SDS011;3720;48.274;7.796;2023-04-09T11:13:58;3.70;;;3.13;;
7359;SDS011;3720;48.274;7.796;2023-04-09T11:16:30;3.95;;;3.50;;
7359;SDS011;3720;48.274;7.796;2023-04-09T11:19:02;4.22;;;3.83;;
7359;SDS011;3720;48.274;7.796;2023-04-09T11:21:35;3.63;;;3.30;;
7359;SDS011;3720;48.274;7.796;2023-04-09T11:24:07;3.75;;;3.17;;
7359;SDS011;3720;48.274;7.796;2023-04-09T11:26:40;4.20;;;3.72;;
7359;SDS011;3720;48.274;7.796;2023-04-09T11:29:12;3.75;;;3.38;;
7359;SDS011;3720;48.274;7.796;2023-04-09T11:31:44;4.22;;;3.30;;
7359;SDS011;3720;48.274;7.796;2023-04-09T11:34:16;3.80;;;3.33;;
7359;SDS011;3720;48.274;7.796;2023-04-09T11:36:48;3.65;;;3.22;;
7359;SDS011;3720;48.274;7.796;2023-04-09T11:39:20;3.40;;;2.80;;
7359;SDS011;3720;48.274;7.796;2023-04-09T11:41:53;3.20;;;2.90;;
7359;SDS011;3720;48.274;7.796;2023-04-09T11:44:26;3.25;;;2.92;;
7359;SDS011;3720;48.274;7.796;2023-04-09T11:47:00;4.20;;;3.70;;
7359;SDS011;3720;48.274;7.796;2023-04-09T11:49:32;4.10;;;3.67;;
7359;SDS011;3720;48.274;7.796;2023-04-09T11:52:09;4.60;;;3.92;;
7359;SDS011;3720;48.274;7.796;2023-04-09T11:54:47;4.50;;;4.00;;
7359;SDS011;3720;48.274;7.796;2023-04-09T11:57:20;3.42;;;2.83;;
7359;SDS011;3720;48.274;7.796;2023-04-09T11:59:53;3.50;;;3.20;;
7359;SDS011;3720;48.274;7.796;2023-04-09T12:02:25;3.40;;;3.10;;
7359;SDS011;3720;48.274;7.796;2023-04-09T12:05:01;3.40;;;3.10;;
7359;SDS011;3720;48.274;7.796;2023-04-09T12:10:06;3.83;;;3.10;;
7359;SDS011;3720;48.274;7.796;2023-04-09T12:12:42;3.80;;;3.10;;
7359;SDS011;3720;48.274;7.796;2023-04-09T12:15:18;3.58;;;3.28;;
7359;SDS011;3720;48.274;7.796;2023-04-09T12:17:52;3.40;;;3.10;;
7359;SDS011;3720;48.274;7.796;2023-04-09T12:20:26;3.95;;;3.55;;
7359;SDS011;3720;48.274;7.796;2023-04-09T12:22:59;3.40;;;3.10;;
7359;SDS011;3720;48.274;7.796;2023-04-09T12:25:33;3.42;;;3.00;;
7359;SDS011;3720;48.274;7.796;2023-04-09T12:28:08;3.92;;;3.40;;
7359;SDS011;3720;48.274;7.796;2023-04-09T12:30:42;3.92;;;3.47;;
7359;SDS011;3720;48.274;7.796;2023-04-09T12:33:14;3.10;;;2.80;;
7359;SDS011;3720;48.274;7.796;2023-04-09T12:35:46;3.08;;;2.78;;
7359;SDS011;3720;48.274;7.796;2023-04-09T12:38:19;3.13;;;2.83;;
7359;SDS011;3720;48.274;7.796;2023-04-09T12:40:50;3.40;;;3.10;;
7359;SDS011;3720;48.274;7.796;2023-04-09T12:43:24;3.40;;;3.10;;
7359;SDS011;3720;48.274;7.796;2023-04-09T12:45:55;3.97;;;3.38;;
7359;SDS011;3720;48.274;7.796;2023-04-09T12:48:28;3.28;;;2.97;;
7359;SDS011;3720;48.274;7.796;2023-04-09T12:51:00;3.40;;;2.95;;
7359;SDS011;3720;48.274;7.796;2023-04-09T12:53:32;4.03;;;3.15;;
7359;SDS011;3720;48.274;7.796;2023-04-09T12:56:04;3.05;;;2.75;;
7359;SDS011;3720;48.274;7.796;2023-04-09T12:58:39;3.38;;;3.05;;
7359;SDS011;3720;48.274;7.796;2023-04-09T13:01:10;3.10;;;2.75;;
7359;SDS011;3720;48.274;7.796;2023-04-09T13:03:42;3.38;;;3.08;;
7359;SDS011;3720;48.274;7.796;2023-04-09T13:06:14;3.28;;;2.97;;
7359;SDS011;3720;48.274;7.796;2023-04-09T13:08:46;2.80;;;2.60;;
7359;SDS011;3720;48.274;7.796;2023-04-09T13:11:18;3.25;;;2.80;;
7359;SDS011;3720;48.274;7.796;2023-04-09T13:13:52;2.80;;;2.60;;
7359;SDS011;3720;48.274;7.796;2023-04-09T13:16:23;3.10;;;2.80;;
7359;SDS011;3720;48.274;7.796;2023-04-09T13:18:55;4.03;;;3.00;;
7359;SDS011;3720;48.274;7.796;2023-04-09T13:21:29;3.88;;;3.40;;
7359;SDS011;3720;48.274;7.796;2023-04-09T13:24:01;3.30;;;3.00;;
7359;SDS011;3720;48.274;7.796;2023-04-09T13:26:33;2.83;;;2.63;;
7359;SDS011;3720;48.274;7.796;2023-04-09T13:29:06;2.95;;;2.65;;
7359;SDS011;3720;48.274;7.796;2023-04-09T13:31:38;3.15;;;2.80;;
7359;SDS011;3720;48.274;7.796;2023-04-09T13:34:10;2.92;;;2.60;;
7359;SDS011;3720;48.274;7.796;2023-04-09T13:36:42;2.60;;;2.40;;
7359;SDS011;3720;48.274;7.796;2023-04-09T13:39:14;2.33;;;2.13;;
7359;SDS011;3720;48.274;7.796;2023-04-09T13:41:46;2.50;;;2.30;;
7359;SDS011;3720;48.274;7.796;2023-04-09T13:44:19;3.03;;;2.40;;
7359;SDS011;3720;48.274;7.796;2023-04-09T13:46:51;3.63;;;2.58;;
7359;SDS011;3720;48.274;7.796;2023-04-09T13:49:23;2.45;;;2.25;;
7359;SDS011;3720;48.274;7.796;2023-04-09T13:51:56;3.05;;;2.75;;
7359;SDS011;3720;48.274;7.796;2023-04-09T13:54:28;2.80;;;2.60;;
7359;SDS011;3720;48.274;7.796;2023-04-09T13:57:00;2.95;;;2.50;;
7359;SDS011;3720;48.274;7.796;2023-04-09T13:59:34;2.92;;;2.22;;
7359;SDS011;3720;48.274;7.796;2023-04-09T14:02:07;2.70;;;2.50;;
7359;SDS011;3720;48.274;7.796;2023-04-09T14:04:39;3.03;;;2.40;;
7359;SDS011;3720;48.274;7.796;2023-04-09T14:07:11;2.50;;;2.30;;
7359;SDS011;3720;48.274;7.796;2023-04-09T14:09:43;2.70;;;2.40;;
7359;SDS011;3720;48.274;7.796;2023-04-09T14:12:15;3.00;;;2.70;;
7359;SDS011;3720;48.274;7.796;2023-04-09T14:14:48;2.78;;;2.40;;
7359;SDS011;3720;48.274;7.796;2023-04-09T14:17:21;2.80;;;2.60;;
7359;SDS011;3720;48.274;7.796;2023-04-09T14:19:53;3.20;;;2.88;;
7359;SDS011;3720;48.274;7.796;2023-04-09T14:22:26;3.00;;;2.42;;
7359;SDS011;3720;48.274;7.796;2023-04-09T14:24:59;3.78;;;2.60;;
7359;SDS011;3720;48.274;7.796;2023-04-09T14:27:30;2.50;;;2.30;;
7359;SDS011;3720;48.274;7.796;2023-04-09T14:30:05;3.00;;;2.50;;
7359;SDS011;3720;48.274;7.796;2023-04-09T14:32:39;2.78;;;2.58;;
7359;SDS011;3720;48.274;7.796;2023-04-09T14:35:12;2.60;;;2.40;;
7359;SDS011;3720;48.274;7.796;2023-04-09T14:37:44;3.55;;;2.45;;
7359;SDS011;3720;48.274;7.796;2023-04-09T14:40:16;2.60;;;2.40;;
7359;SDS011;3720;48.274;7.796;2023-04-09T14:42:48;3.00;;;2.70;;
7359;SDS011;3720;48.274;7.796;2023-04-09T14:45:22;3.42;;;3.00;;
7359;SDS011;3720;48.274;7.796;2023-04-09T14:47:54;3.00;;;2.70;;
7359;SDS011;3720;48.274;7.796;2023-04-09T14:50:27;3.10;;;2.80;;
7359;SDS011;3720;48.274;7.796;2023-04-09T14:53:00;2.83;;;2.53;;
7359;SDS011;3720;48.274;7.796;2023-04-09T14:55:32;3.00;;;2.70;;
7359;SDS011;3720;48.274;7.796;2023-04-09T14:58:04;2.72;;;2.53;;
7359;SDS011;3720;48.274;7.796;2023-04-09T15:00:38;3.13;;;2.83;;
7359;SDS011;3720;48.274;7.796;2023-04-09T15:03:10;2.67;;;2.45;;
7359;SDS011;3720;48.274;7.796;2023-04-09T15:05:42;3.80;;;2.78;;
7359;SDS011;3720;48.274;7.796;2023-04-09T15:08:15;3.10;;;2.80;;
7359;SDS011;3720;48.274;7.796;2023-04-09T15:10:46;2.65;;;2.38;;
7359;SDS011;3720;48.274;7.796;2023-04-09T15:13:18;2.80;;;2.50;;
7359;SDS011;3720;48.274;7.796;2023-04-09T15:15:52;2.80;;;2.55;;
7359;SDS011;3720;48.274;7.796;2023-04-09T15:18:24;3.42;;;3.00;;
7359;SDS011;3720;48.274;7.796;2023-04-09T15:20:55;3.72;;;3.40;;
7359;SDS011;3720;48.274;7.796;2023-04-09T15:23:27;2.72;;;2.53;;
7359;SDS011;3720;48.274;7.796;2023-04-09T15:25:59;2.70;;;2.47;;
7359;SDS011;3720;48.274;7.796;2023-04-09T15:28:31;3.08;;;2.78;;
7359;SDS011;3720;48.274;7.796;2023-04-09T15:31:05;2.85;;;2.55;;
7359;SDS011;3720;48.274;7.796;2023-04-09T15:33:37;3.05;;;2.50;;
7359;SDS011;3720;48.274;7.796;2023-04-09T15:36:12;2.80;;;2.60;;
7359;SDS011;3720;48.274;7.796;2023-04-09T15:38:44;4.50;;;2.70;;
7359;SDS011;3720;48.274;7.796;2023-04-09T15:41:16;2.75;;;2.55;;
7359;SDS011;3720;48.274;7.796;2023-04-09T15:43:50;3.00;;;2.67;;